Kashan, Iran

11:50 PM IRST on October 01, 2014 (GMT +0330)
Kashan | Change Station
CLOSE
Current Station
Airport
Location: Kashan,
Elevation: 3222 ft
Nearby Weather Stations

Elev 3222 ft 33.98 °N, 51.45 °E | Updated 20 minutes ago

Clear
Clear
77 °F
Feels Like 77 °F
N
0
Wind Variable Wind from North

Today
High -- | Low -- °F
--% Chance of Precip.
Yesterday
High -- | Low -- °F
Precip. -- in
5:58 AM 5:48 PM
Waxing Crescent, 50% visible
Pressure 30.04 in
Visibility -9999.0 miles
Clouds
Dew Point 39 °F
Humidity 26%
Rainfall 0.00 in
Snow Depth Not available.
UV Not available.
Pollen Not available.
Air Quality Not available.
Flu Activity Not available.
METAR OIFK 302000Z 00000KT CAVOK 25/04 Q1017

More Conditions Fewer Conditions

Pressure 30.04 in
Visibility -9999.0 miles
Clouds
Dew Point 39 °F
Humidity 26%
Rainfall 0.00 in
Snow Depth Not available.
UV Not available.
Pollen Not available.
Air Quality Not available.
Flu Activity Not available.
METAR OIFK 302000Z 00000KT CAVOK 25/04 Q1017

More Conditions Fewer Conditions

10-Day Weather Forecast

Almanac

Astronomy

Oct. 01, 2014 Rise Set
Actual Time 5:58 AM IRST 5:48 PM IRST
Civil Twilight 5:33 AM IRST 6:13 PM IRST
Nautical Twilight 5:04 AM IRST 6:42 PM IRST
Astronomical Twilight 4:35 AM IRST 7:11 PM IRST
Moon 12:27 PM IRST 11:07 PM IRST
Length of Visible Light 12h 40m
Length of Day
11h 50m
Tomorrow will be 2m 5s shorter.
Waxing Crescent, 50% of the Moon is Illuminated
Today
Waxing Crescent
Oct 8
Full
Oct 15
Last Quarter
Oct 23
New
Oct 30
First Quarter

Today's Extremes

Country Highs Country Lows

Community

WunderPhotos

Upload Photos

1,758,030 photos uploaded!

WunderBlogs® & News

By Dr. Jeff Masters
Director of Meteorology, Weather Underground
By Kari Strenfel
Meteorologist, Weather Underground
By Christopher C. Burt
Weather Historian, Weather Underground
October 1, 2014
October 1, 2014
October 1, 2014

Nearby

Snow Depth

Not available.

Earthquake Activity

City Distance Mag. Time & Date
No recent earthquake activity has been reported nearby.
Minimum magnitude displayed is 2.5.

Coastal Water Temperatures

Place Temperature
No Stations Reporting

Nearby Weather Stations